Lawin Arrow — C6BD8 — position and weather

sailwx.info

Track history (hours):
 
Tides and Currents Weather Stations Pressure Air Temp Water Temp Dewpoint Dewpoint Depression Visibility Wind Speed Wind Dir Waves Ship Positions

Lawin Arrow

Last reported at 2018-May-22 16:41 UTC. Time now 2018-Jun-22 03:30 UTC.
Position N 36°60' E 123°34'.
Warning: this ship's position is 30 days out of date.

Length 200 m; draft 12.1 m.

Type: Cargo ship. MMSI: 311000235.

Date/timePositionNaut miles runAvg speedWind from/ knotsBaromVisibWave heightAir tempDewpointWater temp
2018-May-22 16:41N 36°60' E 123°34'212.3
2018-May-22 16:30N 37°02' E 123°33'612.3
2018-May-22 16:00N 37°08' E 123°30'  
2018-May-18 19:40N 38°37' E 120°57'512.8
2018-May-18 19:17N 38°34' E 121°02'312.6
2018-May-18 19:00N 38°32' E 121°05'612.6
2018-May-18 18:30N 38°29' E 121°13'613.0
2018-May-18 18:00N 38°26' E 121°20'712.8
2018-May-18 17:25N 38°23' E 121°29'612.9
2018-May-18 16:59N 38°22' E 121°36'612.8
2018-May-18 16:30N 38°20' E 121°43'612.6
2018-May-18 16:00N 38°18' E 121°51'612.6
2018-May-18 15:30N 38°16' E 121°58'912.8
2018-May-18 14:49N 38°14' E 122°09'412.8
2018-May-18 14:30N 38°12' E 122°14'713.0
2018-May-18 13:59N 38°11' E 122°22'713.2
2018-May-18 13:29N 38°10' E 122°31'42410.8
2018-May-16 22:07N 31°06' E 122°18'214.2
2018-May-16 21:59N 31°07' E 122°16'1114.6
2018-May-16 21:16N 31°13' E 122°06'414.7
2018-May-16 21:00N 31°14' E 122°02'815.3
2018-May-16 20:29N 31°16' E 121°53'2112.1
2018-May-16 18:44N 31°25' E 121°31'2 8.5
2018-May-16 18:29N 31°26' E 121°29'4 8.4
2018-May-16 18:00N 31°30' E 121°26'4 8.9
2018-May-16 17:31N 31°32' E 121°21'4 8.9
2018-May-16 17:00N 31°35' E 121°18'4 8.9
2018-May-16 16:31N 31°38' E 121°14'5 9.3
2018-May-16 15:59N 31°41' E 121°10'3611.5
2018-May-16 12:51N 32°01' E 120°34'512.9
2018-May-16 12:28N 32°02' E 120°28'  
Track history (hours):
 
Tides and Currents Weather Stations Pressure Air Temp Water Temp Dewpoint Dewpoint Depression Visibility Wind Speed Wind Dir Waves Ship Positions

Lawin Arrow

Last reported at 2018-May-22 16:41 UTC. Time now 2018-Jun-22 03:30 UTC.
Position N 36°60' E 123°34'.
Warning: this ship's position is 30 days out of date.

Length 200 m; draft 12.1 m.

Type: Cargo ship. MMSI: 311000235.

Date/timePositionNaut miles runAvg speedWind from/ knotsBaromVisibWave heightAir tempDewpointWater temp
2018-May-22 16:41N 36°60' E 123°34'212.3
2018-May-22 16:30N 37°02' E 123°33'612.3
2018-May-22 16:00N 37°08' E 123°30'  
2018-May-18 19:40N 38°37' E 120°57'512.8
2018-May-18 19:17N 38°34' E 121°02'312.6
2018-May-18 19:00N 38°32' E 121°05'612.6
2018-May-18 18:30N 38°29' E 121°13'613.0
2018-May-18 18:00N 38°26' E 121°20'712.8
2018-May-18 17:25N 38°23' E 121°29'612.9
2018-May-18 16:59N 38°22' E 121°36'612.8
2018-May-18 16:30N 38°20' E 121°43'612.6
2018-May-18 16:00N 38°18' E 121°51'612.6
2018-May-18 15:30N 38°16' E 121°58'912.8
2018-May-18 14:49N 38°14' E 122°09'412.8
2018-May-18 14:30N 38°12' E 122°14'713.0
2018-May-18 13:59N 38°11' E 122°22'713.2
2018-May-18 13:29N 38°10' E 122°31'42410.8
2018-May-16 22:07N 31°06' E 122°18'214.2
2018-May-16 21:59N 31°07' E 122°16'1114.6
2018-May-16 21:16N 31°13' E 122°06'414.7
2018-May-16 21:00N 31°14' E 122°02'815.3
2018-May-16 20:29N 31°16' E 121°53'2112.1
2018-May-16 18:44N 31°25' E 121°31'2 8.5
2018-May-16 18:29N 31°26' E 121°29'4 8.4
2018-May-16 18:00N 31°30' E 121°26'4 8.9
2018-May-16 17:31N 31°32' E 121°21'4 8.9
2018-May-16 17:00N 31°35' E 121°18'4 8.9
2018-May-16 16:31N 31°38' E 121°14'5 9.3
2018-May-16 15:59N 31°41' E 121°10'3611.5
2018-May-16 12:51N 32°01' E 120°34'512.9
2018-May-16 12:28N 32°02' E 120°28'  

Dump ship's entire track history